Cape Coral, FL (33914)

7:23 PM EST on January 27, 2015 (GMT -0500)
Cape Coral Pkwy, Skyline Blvd | Change Station
CLOSE
Current Station
Personal Weather Station
Location: Cape Coral, FL
Elevation: 18 ft
Nearby Weather Stations
Active Advisory: Coastal Hazard Statement

Elev 18 ft 26.57 °N, 82.00 °W | Updated 3 minutes ago

Partly Cloudy
Partly Cloudy
63.5 °F
Feels Like 63.5 °F
N
1.0
Wind Variable Wind from NNE
Gusts 4.0 mph

Today
High -- | Low -- °F
--% Chance of Precip.
Yesterday
High -- | Low -- °F
Precip. -- in
7:15 AM 6:06 PM
First Quarter, 59% visible
Pressure 30.01 in
Visibility 10.0 miles
Clouds Few 4000 ft
Dew Point 55 °F
Humidity 74%
Rainfall 0.00 in
Snow Depth Not available.
UV 0 out of 12
Pollen 8.90 out of 12
Air Quality Not available.
Flu Activity Not available.
METAR KFMY 272353Z 28006KT 10SM FEW040 17/12 A3001 RMK AO2 SLP163 T01720117 10206 20172 53003

More Conditions Fewer Conditions

Pressure 30.01 in
Visibility 10.0 miles
Clouds Few 4000 ft
Dew Point 55 °F
Humidity 74%
Rainfall 0.00 in
Snow Depth Not available.
UV 0 out of 12
Pollen 8.90 out of 12
Air Quality Not available.
Flu Activity Not available.
METAR KFMY 272353Z 28006KT 10SM FEW040 17/12 A3001 RMK AO2 SLP163 T01720117 10206 20172 53003

More Conditions Fewer Conditions

10-Day Weather Forecast

Almanac

Astronomy

Jan. 27, 2015 Rise Set
Actual Time
Civil Twilight
Nautical Twilight
Astronomical Twilight
Moon
Length of Visible Light
Length of Day
Tomorrow will be .
, % of the Moon is Illuminated

Today's Extremes

State Highs State Lows

Community

WunderPhotos

Upload Photos

1,790,994 photos uploaded!

WunderBlogs® & News

Nearby

Air Quality

  Air Quality AQ Index Pollutant
Not available.

Snow Depth

Station Depth Elevation

Earthquake Activity

City Distance Mag. Time & Date
Minimum magnitude displayed is 2.5.

Coastal Water Temperatures

Place Temperature

Nearby Weather Stations